Time;durP1;ratioP1;P1;durP2;ratioP2;P2;SDS_P1;SDS_P2;PMS_P1;PMS_P2;Temp;Humidity;BMP_temperature;BMP_pressure;BME280_temperature;BME280_humidity;BME280_pressure;Samples;Min_cycle;Max_cycle;Signal;HPM_P1;HPM_P2
2023/03/21 00:02:23;;;;;;;;;;;16.00;83.10;;;;;;5095487;28;20308;-86
2023/03/21 00:04:49;;;;;;;;;;;16.00;83.10;;;;;;5076684;28;19934;-86
2023/03/21 00:07:14;;;;;;;;;;;16.00;83.10;;;;;;5093233;28;19908;-86
2023/03/21 00:09:43;;;;;;;;;;;16.00;83.10;;;;;;5093621;28;21947;-86
2023/03/21 00:12:10;;;;;;;;;;;16.00;83.00;;;;;;5093878;28;19908;-86
2023/03/21 00:14:36;;;;;;;;;;;16.00;83.00;;;;;;5093460;28;19908;-86
2023/03/21 00:17:02;;;;;;;;;;;16.00;83.00;;;;;;5095673;28;19908;-86
2023/03/21 00:19:31;;;;;;;;;;;16.00;82.90;;;;;;5077719;28;20018;-86
2023/03/21 00:22:01;;;;;;;;;;;16.00;82.90;;;;;;5095427;28;19973;-86
2023/03/21 00:24:26;;;;;;;;;;;16.00;82.90;;;;;;5093838;28;20003;-86
2023/03/21 00:26:55;;;;;;;;;;;16.00;82.90;;;;;;5076830;28;19943;-86
2023/03/21 00:29:24;;;;;;;;;;;16.00;82.90;;;;;;5076242;28;19908;-86
2023/03/21 00:31:49;;;;;;;;;;;16.00;82.90;;;;;;5093924;28;19908;-86
2023/03/21 00:34:15;;;;;;;;;;;16.00;82.80;;;;;;5076749;28;19916;-86
2023/03/21 00:36:41;;;;;;;;;;;16.00;82.80;;;;;;5076495;28;20350;-86
2023/03/21 00:39:07;;;;;;;;;;;16.00;82.80;;;;;;5094923;28;19961;-86
2023/03/21 00:41:33;;;;;;;;;;;16.00;82.80;;;;;;5095212;28;19915;-86
2023/03/21 00:43:58;;;;;;;;;;;15.90;82.70;;;;;;5094662;28;19908;-86
2023/03/21 00:46:27;;;;;;;;;;;16.00;82.80;;;;;;5094458;28;19919;-86
2023/03/21 00:48:55;;;;;;;;;;;16.00;82.80;;;;;;5076278;28;19973;-87
2023/03/21 00:51:27;;;;;;;;;;;16.00;82.80;;;;;;5110349;28;19908;-86
2023/03/21 00:53:53;;;;;;;;;;;16.00;82.80;;;;;;5076364;28;20297;-86
2023/03/21 00:56:19;;;;;;;;;;;16.00;82.80;;;;;;5074702;28;20159;-86
2023/03/21 00:58:45;;;;;;;;;;;16.00;82.80;;;;;;5076556;28;19969;-86
2023/03/21 01:01:10;;;;;;;;;;;15.90;82.60;;;;;;5078263;28;19908;-86
2023/03/21 01:03:46;;;;;;;;;;;15.90;82.60;;;;;;5078539;28;19912;-86
2023/03/21 01:06:18;;;;;;;;;;;15.90;82.60;;;;;;5079559;28;20200;-86
2023/03/21 01:08:44;;;;;;;;;;;15.90;82.60;;;;;;5098395;28;19909;-86
2023/03/21 01:11:12;;;;;;;;;;;16.00;82.60;;;;;;5081628;28;20274;-86
2023/03/21 01:13:40;;;;;;;;;;;15.90;82.50;;;;;;5081522;28;20007;-86
2023/03/21 01:16:07;;;;;;;;;;;15.90;82.50;;;;;;5080818;28;20166;-86
2023/03/21 01:18:34;;;;;;;;;;;16.00;82.50;;;;;;5082238;28;19908;-86
2023/03/21 01:21:00;;;;;;;;;;;15.90;82.50;;;;;;5082501;28;19912;-87
2023/03/21 01:23:26;;;;;;;;;;;15.90;82.50;;;;;;5082038;28;19919;-86
2023/03/21 01:25:52;;;;;;;;;;;15.90;82.50;;;;;;5097545;28;19912;-86
2023/03/21 01:28:18;;;;;;;;;;;15.90;82.50;;;;;;5079703;28;19908;-87
2023/03/21 01:30:48;;;;;;;;;;;15.90;82.40;;;;;;5096490;28;19919;-86
2023/03/21 01:33:14;;;;;;;;;;;15.90;82.40;;;;;;5096991;28;19938;-86
2023/03/21 01:35:43;;;;;;;;;;;15.90;82.40;;;;;;5077648;28;20304;-86
2023/03/21 01:38:11;;;;;;;;;;;15.90;82.30;;;;;;5079552;28;19912;-86
2023/03/21 01:40:38;;;;;;;;;;;15.90;82.30;;;;;;5079768;28;19908;-86
2023/03/21 01:43:12;;;;;;;;;;;15.90;82.30;;;;;;5079246;28;19908;-86
2023/03/21 01:45:57;;;;;;;;;;;15.90;82.40;;;;;;5079830;28;19912;-86
2023/03/21 01:48:26;;;;;;;;;;;15.90;82.30;;;;;;5080398;28;19935;-87
2023/03/21 01:50:51;;;;;;;;;;;15.90;82.30;;;;;;5078610;28;19934;-86
2023/03/21 01:53:20;;;;;;;;;;;15.90;82.20;;;;;;5079537;28;20177;-86
2023/03/21 01:55:46;;;;;;;;;;;15.90;82.30;;;;;;5097283;28;19912;-86
2023/03/21 01:58:17;;;;;;;;;;;15.90;82.30;;;;;;5080235;28;19952;-86
2023/03/21 02:00:49;;;;;;;;;;;15.90;82.30;;;;;;5080061;28;19994;-86
2023/03/21 02:03:15;;;;;;;;;;;15.90;82.30;;;;;;5079796;28;19919;-86
2023/03/21 02:05:49;;;;;;;;;;;15.90;82.30;;;;;;5096623;28;19912;-86
2023/03/21 02:08:19;;;;;;;;;;;15.90;82.20;;;;;;5078182;28;19909;-86
2023/03/21 02:10:45;;;;;;;;;;;15.90;82.30;;;;;;5095514;28;20328;-86
2023/03/21 02:13:11;;;;;;;;;;;15.90;82.30;;;;;;5077975;28;20297;-86
2023/03/21 02:15:38;;;;;;;;;;;15.90;82.20;;;;;;5096214;28;19908;-86
2023/03/21 02:18:16;;;;;;;;;;;15.90;82.30;;;;;;5097061;28;19943;-86
2023/03/21 02:20:53;;;;;;;;;;;15.90;82.30;;;;;;5079047;28;19973;-87
2023/03/21 02:23:41;;;;;;;;;;;15.90;82.20;;;;;;5078905;28;20007;-86
2023/03/21 02:26:23;;;;;;;;;;;15.80;82.10;;;;;;5080278;28;19961;-86
2023/03/21 02:29:08;;;;;;;;;;;15.80;82.20;;;;;;5079023;28;19915;-86
2023/03/21 02:31:39;;;;;;;;;;;15.80;82.20;;;;;;5080434;28;20223;-86
2023/03/21 02:34:05;;;;;;;;;;;15.80;82.20;;;;;;5079706;28;19916;-86
2023/03/21 02:36:45;;;;;;;;;;;15.80;82.20;;;;;;5080894;28;19966;-89
2023/03/21 02:39:25;;;;;;;;;;;15.80;82.20;;;;;;5098159;28;19915;-88
2023/03/21 02:41:56;;;;;;;;;;;15.80;82.20;;;;;;5081157;28;19908;-88
2023/03/21 02:44:25;;;;;;;;;;;15.80;82.10;;;;;;5097627;28;19909;-88
2023/03/21 02:47:00;;;;;;;;;;;15.80;82.10;;;;;;5079994;28;20011;-88
2023/03/21 02:49:32;;;;;;;;;;;15.80;82.20;;;;;;5079922;28;19931;-88
2023/03/21 02:52:02;;;;;;;;;;;15.80;82.10;;;;;;5079952;28;20006;-88
2023/03/21 02:54:28;;;;;;;;;;;15.80;82.10;;;;;;5080088;28;19918;-90
2023/03/21 02:56:59;;;;;;;;;;;15.80;82.10;;;;;;5080189;28;19965;-88
2023/03/21 02:59:26;;;;;;;;;;;15.80;82.10;;;;;;5080302;28;19995;-88
2023/03/21 03:01:52;;;;;;;;;;;15.80;82.10;;;;;;5098194;28;19997;-88
2023/03/21 03:04:22;;;;;;;;;;;15.80;82.80;;;;;;5079179;28;19947;-88
2023/03/21 03:07:00;;;;;;;;;;;15.80;82.10;;;;;;5079071;28;20042;-88
2023/03/21 03:09:45;;;;;;;;;;;15.80;82.10;;;;;;5078729;28;19908;-88
2023/03/21 03:12:10;;;;;;;;;;;15.80;82.10;;;;;;5079417;28;20067;-88
2023/03/21 03:14:44;;;;;;;;;;;15.80;82.10;;;;;;5078801;28;20199;-88
2023/03/21 03:17:13;;;;;;;;;;;15.80;82.10;;;;;;5078891;28;20003;-88
2023/03/21 03:20:09;;;;;;;;;;;15.80;82.10;;;;;;5079474;28;20159;-88
2023/03/21 03:22:47;;;;;;;;;;;15.80;82.10;;;;;;5078427;28;20257;-88
2023/03/21 03:25:51;;;;;;;;;;;15.80;82.10;;;;;;5079927;28;19977;-87
2023/03/21 03:28:18;;;;;;;;;;;15.70;82.10;;;;;;5035125;28;20330;-89
2023/03/21 03:30:45;;;;;;;;;;;15.80;82.20;;;;;;5068136;28;20159;-88
2023/03/21 03:33:15;;;;;;;;;;;15.70;82.20;;;;;;5095959;28;19966;-88
2023/03/21 03:35:42;;;;;;;;;;;15.80;82.20;;;;;;5078563;28;19908;-88
2023/03/21 03:38:08;;;;;;;;;;;15.70;82.10;;;;;;5096468;28;19943;-88
2023/03/21 03:41:03;;;;;;;;;;;15.80;82.20;;;;;;5079124;28;20236;-88
2023/03/21 03:43:33;;;;;;;;;;;15.70;82.20;;;;;;5069573;28;19973;-88
2023/03/21 03:46:02;;;;;;;;;;;15.80;82.20;;;;;;5079079;28;19953;-88
2023/03/21 03:48:31;;;;;;;;;;;15.70;82.20;;;;;;5079396;28;19934;-88
2023/03/21 03:51:02;;;;;;;;;;;15.70;82.20;;;;;;5078607;28;20271;-89
2023/03/21 03:53:42;;;;;;;;;;;15.80;82.30;;;;;;5078845;28;19931;-88
2023/03/21 03:56:10;;;;;;;;;;;15.70;82.30;;;;;;5079108;28;19908;-88
2023/03/21 03:58:39;;;;;;;;;;;15.70;82.20;;;;;;5079924;28;19908;-88
2023/03/21 04:01:08;;;;;;;;;;;15.70;82.30;;;;;;5077760;28;19918;-88
2023/03/21 04:03:36;;;;;;;;;;;15.70;82.30;;;;;;5079094;28;20337;-88
2023/03/21 04:06:02;;;;;;;;;;;15.70;82.30;;;;;;5079106;28;19919;-88
2023/03/21 04:08:29;;;;;;;;;;;15.70;82.40;;;;;;5077679;28;19919;-88
2023/03/21 04:10:55;;;;;;;;;;;15.70;82.40;;;;;;5095789;28;19912;-88
2023/03/21 04:13:26;;;;;;;;;;;15.70;82.40;;;;;;5077954;28;19999;-88
2023/03/21 04:15:51;;;;;;;;;;;15.70;82.50;;;;;;5077243;28;20231;-88
2023/03/21 04:18:17;;;;;;;;;;;15.70;82.50;;;;;;5077892;28;19915;-89
2023/03/21 04:20:48;;;;;;;;;;;15.70;82.50;;;;;;5078762;28;19909;-89
2023/03/21 04:23:13;;;;;;;;;;;15.70;82.50;;;;;;5078081;28;19919;-88
2023/03/21 04:25:39;;;;;;;;;;;15.70;82.50;;;;;;5077114;28;19916;-88
2023/03/21 04:31:12;;;;;;;;;;;15.70;82.60;;;;;;5094164;28;19919;-88
2023/03/21 04:33:50;;;;;;;;;;;15.70;82.60;;;;;;5078178;28;20288;-88
2023/03/21 04:36:26;;;;;;;;;;;15.60;82.60;;;;;;5080131;28;20205;-88
2023/03/21 04:38:52;;;;;;;;;;;15.60;82.60;;;;;;5082543;28;19956;-88
2023/03/21 04:41:17;;;;;;;;;;;15.70;82.60;;;;;;5082590;28;19954;-88
2023/03/21 04:43:43;;;;;;;;;;;15.70;82.60;;;;;;5082530;28;20171;-88
2023/03/21 04:46:09;;;;;;;;;;;15.70;82.70;;;;;;5081108;28;19919;-88
2023/03/21 04:48:38;;;;;;;;;;;15.60;82.60;;;;;;5098147;28;20018;-88
2023/03/21 04:51:06;;;;;;;;;;;15.70;82.70;;;;;;5081302;28;19938;-88
2023/03/21 04:53:32;;;;;;;;;;;15.60;82.70;;;;;;5080146;28;20354;-88
2023/03/21 04:55:58;;;;;;;;;;;15.60;82.70;;;;;;5080679;28;19908;-88
2023/03/21 04:58:23;;;;;;;;;;;15.60;82.70;;;;;;5080603;28;20015;-88
2023/03/21 05:00:51;;;;;;;;;;;15.60;82.70;;;;;;5080677;28;19909;-88
2023/03/21 05:03:19;;;;;;;;;;;15.60;82.70;;;;;;5080592;28;19916;-88
2023/03/21 05:05:45;;;;;;;;;;;15.60;82.80;;;;;;5081298;28;19915;-88
2023/03/21 05:08:14;;;;;;;;;;;15.60;82.80;;;;;;5080041;28;19919;-88
2023/03/21 05:10:39;;;;;;;;;;;15.60;82.70;;;;;;5081133;28;19976;-88
2023/03/21 05:13:05;;;;;;;;;;;15.60;82.70;;;;;;5080084;28;19916;-88
2023/03/21 05:15:37;;;;;;;;;;;15.60;82.80;;;;;;5081286;28;19915;-89
2023/03/21 05:18:09;;;;;;;;;;;15.60;82.80;;;;;;5097324;28;19908;-89
2023/03/21 05:20:41;;;;;;;;;;;15.60;82.80;;;;;;5079567;28;19961;-89
2023/03/21 05:23:09;;;;;;;;;;;15.60;82.80;;;;;;5097209;28;19908;-88
2023/03/21 05:25:38;;;;;;;;;;;15.60;82.80;;;;;;5079361;28;19916;-88
2023/03/21 05:28:05;;;;;;;;;;;15.60;82.80;;;;;;5080933;28;20291;-88
2023/03/21 05:30:32;;;;;;;;;;;15.60;82.80;;;;;;5079480;28;20023;-88
2023/03/21 05:32:58;;;;;;;;;;;15.60;82.80;;;;;;5081018;28;20010;-88
2023/03/21 05:35:24;;;;;;;;;;;15.60;82.80;;;;;;5083357;28;19947;-88
2023/03/21 05:37:52;;;;;;;;;;;15.60;82.80;;;;;;5081364;28;19995;-88
2023/03/21 05:40:21;;;;;;;;;;;15.60;82.80;;;;;;5078458;28;19908;-88
2023/03/21 05:42:50;;;;;;;;;;;15.60;82.70;;;;;;5077658;28;20064;-88
2023/03/21 05:45:15;;;;;;;;;;;15.60;82.70;;;;;;5076263;28;20019;-89
2023/03/21 05:47:41;;;;;;;;;;;15.60;82.70;;;;;;5094429;28;19995;-88
2023/03/21 05:50:10;;;;;;;;;;;15.60;83.30;;;;;;5078002;28;19912;-88
2023/03/21 05:52:35;;;;;;;;;;;15.60;82.70;;;;;;5077748;28;19908;-88
2023/03/21 05:55:02;;;;;;;;;;;15.60;82.70;;;;;;5077315;28;19919;-88
2023/03/21 05:57:27;;;;;;;;;;;15.60;82.70;;;;;;5076929;28;20185;-88
2023/03/21 05:59:53;;;;;;;;;;;15.60;82.70;;;;;;5095993;28;20316;-88
2023/03/21 06:02:19;;;;;;;;;;;15.60;82.70;;;;;;5078429;28;20190;-88
2023/03/21 06:04:45;;;;;;;;;;;15.60;82.70;;;;;;5076731;28;20201;-88
2023/03/21 06:07:14;;;;;;;;;;;15.60;82.70;;;;;;5078496;28;19935;-88
2023/03/21 06:09:42;;;;;;;;;;;15.60;82.60;;;;;;5077159;28;19919;-88
2023/03/21 06:12:08;;;;;;;;;;;15.60;82.60;;;;;;5076648;28;20155;-88
2023/03/21 06:14:34;;;;;;;;;;;15.60;82.60;;;;;;5082457;28;19915;-89
2023/03/21 06:16:59;;;;;;;;;;;15.60;82.60;;;;;;5076430;28;20370;-88
2023/03/21 06:19:28;;;;;;;;;;;15.60;82.50;;;;;;5074885;28;19961;-88
2023/03/21 06:21:57;;;;;;;;;;;15.60;82.50;;;;;;5072811;28;19909;-89
2023/03/21 06:24:22;;;;;;;;;;;15.60;82.80;;;;;;5074707;28;19912;-88
2023/03/21 06:26:48;;;;;;;;;;;15.60;83.00;;;;;;5073879;28;19916;-88
2023/03/21 06:29:13;;;;;;;;;;;15.70;83.40;;;;;;5072388;28;19915;-88
2023/03/21 06:31:39;;;;;;;;;;;15.70;83.70;;;;;;5072557;28;19919;-88
2023/03/21 06:34:05;;;;;;;;;;;15.70;84.00;;;;;;5073545;28;19920;-88
2023/03/21 06:36:30;;;;;;;;;;;15.70;84.40;;;;;;5073718;28;19908;-88
2023/03/21 06:38:56;;;;;;;;;;;15.70;84.70;;;;;;5073067;28;19933;-88
2023/03/21 06:41:24;;;;;;;;;;;15.70;85.10;;;;;;5073371;28;20209;-89
2023/03/21 06:43:53;;;;;;;;;;;15.70;85.70;;;;;;5074494;28;20262;-88
2023/03/21 06:46:19;;;;;;;;;;;15.80;86.10;;;;;;5074629;28;19919;-89
2023/03/21 06:48:45;;;;;;;;;;;15.80;86.40;;;;;;5072585;28;20060;-89
2023/03/21 06:51:11;;;;;;;;;;;15.80;86.70;;;;;;5071998;28;19908;-89
2023/03/21 06:53:40;;;;;;;;;;;15.80;86.80;;;;;;5073161;28;20004;-89
2023/03/21 06:56:06;;;;;;;;;;;15.80;87.50;;;;;;5071690;28;20060;-90
2023/03/21 06:58:35;;;;;;;;;;;15.70;86.80;;;;;;5074556;28;19988;-89
2023/03/21 07:01:01;;;;;;;;;;;15.70;87.50;;;;;;5074543;28;19915;-89
2023/03/21 07:03:27;;;;;;;;;;;15.70;87.00;;;;;;5072464;28;19961;-90
2023/03/21 07:05:54;;;;;;;;;;;15.70;87.10;;;;;;5073010;28;20022;-89
2023/03/21 07:08:20;;;;;;;;;;;15.80;87.20;;;;;;5088496;28;19919;-89
2023/03/21 07:10:46;;;;;;;;;;;15.80;87.20;;;;;;5087538;28;20344;-89
2023/03/21 07:13:12;;;;;;;;;;;15.80;87.00;;;;;;5069972;28;20301;-89
2023/03/21 07:15:37;;;;;;;;;;;15.80;86.60;;;;;;5071760;28;20278;-89
2023/03/21 07:18:04;;;;;;;;;;;15.80;86.60;;;;;;5068949;28;20031;-89
2023/03/21 07:20:33;;;;;;;;;;;15.80;86.80;;;;;;5069656;28;20178;-89
2023/03/21 07:23:01;;;;;;;;;;;15.80;87.00;;;;;;5072124;28;19916;-89
2023/03/21 07:25:27;;;;;;;;;;;15.80;87.20;;;;;;5070971;28;19912;-89
2023/03/21 07:27:53;;;;;;;;;;;15.80;87.40;;;;;;5071204;28;19931;-88
2023/03/21 07:30:19;;;;;;;;;;;15.80;87.50;;;;;;5069784;28;20109;-89
2023/03/21 07:32:44;;;;;;;;;;;15.80;87.50;;;;;;5085805;28;20229;-89
2023/03/21 07:35:11;;;;;;;;;;;15.80;87.80;;;;;;5070204;28;19911;-89
2023/03/21 07:37:37;;;;;;;;;;;15.80;87.80;;;;;;5067740;28;20297;-89
2023/03/21 07:40:08;;;;;;;;;;;15.80;88.20;;;;;;5067380;28;19912;-89
2023/03/21 07:42:34;;;;;;;;;;;15.80;88.20;;;;;;5066947;28;20251;-89
2023/03/21 07:44:59;;;;;;;;;;;15.90;88.30;;;;;;5067324;28;20350;-89
2023/03/21 07:47:28;;;;;;;;;;;15.90;88.40;;;;;;5068486;28;20179;-89
2023/03/21 07:49:57;;;;;;;;;;;15.90;88.20;;;;;;5067881;28;19912;-89
2023/03/21 07:52:23;;;;;;;;;;;15.90;87.90;;;;;;5068013;28;19983;-89
2023/03/21 07:54:48;;;;;;;;;;;15.90;87.70;;;;;;5086928;28;20015;-88
2023/03/21 07:57:14;;;;;;;;;;;15.90;87.50;;;;;;5070937;28;20273;-89
2023/03/21 07:59:39;;;;;;;;;;;15.90;87.30;;;;;;5068434;28;20279;-89
2023/03/21 08:02:06;;;;;;;;;;;15.90;87.10;;;;;;5068938;28;20185;-89
2023/03/21 08:04:34;;;;;;;;;;;15.90;86.90;;;;;;5069672;28;19908;-89
2023/03/21 08:07:00;;;;;;;;;;;15.90;86.60;;;;;;5069962;28;19912;-89
2023/03/21 08:09:25;;;;;;;;;;;16.00;86.60;;;;;;5087406;28;19908;-89
2023/03/21 08:11:54;;;;;;;;;;;16.00;86.50;;;;;;5070960;28;19909;-89
2023/03/21 08:14:22;;;;;;;;;;;16.00;86.40;;;;;;5070199;28;19923;-89
2023/03/21 08:16:51;;;;;;;;;;;16.00;86.40;;;;;;5070192;28;19908;-89
2023/03/21 08:19:19;;;;;;;;;;;15.90;86.40;;;;;;5089314;28;19908;-89
2023/03/21 08:21:45;;;;;;;;;;;15.90;86.20;;;;;;5069670;28;20014;-89
2023/03/21 08:24:10;;;;;;;;;;;16.00;86.20;;;;;;5070034;28;20018;-89
2023/03/21 08:26:37;;;;;;;;;;;16.00;86.10;;;;;;5069783;28;19912;-89
2023/03/21 08:29:03;;;;;;;;;;;16.00;86.00;;;;;;5069656;28;19969;-89
2023/03/21 08:31:28;;;;;;;;;;;16.00;85.80;;;;;;5087190;28;19909;-88
2023/03/21 08:33:57;;;;;;;;;;;16.00;86.30;;;;;;5069130;28;19924;-89
2023/03/21 08:36:25;;;;;;;;;;;16.00;85.40;;;;;;5069291;28;20018;-89
2023/03/21 08:38:55;;;;;;;;;;;16.10;85.30;;;;;;5068853;28;19962;-89
2023/03/21 08:41:23;;;;;;;;;;;16.10;85.10;;;;;;5071300;28;20006;-89
2023/03/21 08:43:48;;;;;;;;;;;16.10;84.90;;;;;;5069949;28;20007;-89
2023/03/21 08:46:17;;;;;;;;;;;16.10;84.80;;;;;;5070808;28;20341;-89
2023/03/21 08:48:43;;;;;;;;;;;16.10;84.70;;;;;;5088627;28;19973;-89
2023/03/21 08:51:08;;;;;;;;;;;16.10;84.60;;;;;;5068214;28;20069;-89
2023/03/21 08:53:34;;;;;;;;;;;16.10;85.10;;;;;;5067548;28;19912;-89
2023/03/21 08:56:00;;;;;;;;;;;16.20;84.50;;;;;;5069422;28;19916;-89
2023/03/21 08:58:26;;;;;;;;;;;16.10;84.30;;;;;;5070273;28;20274;-89
2023/03/21 09:00:51;;;;;;;;;;;16.10;84.30;;;;;;5067773;28;20040;-89
2023/03/21 09:03:18;;;;;;;;;;;16.20;84.30;;;;;;5087014;28;20198;-89
2023/03/21 09:05:44;;;;;;;;;;;16.10;84.20;;;;;;5069234;28;20305;-89
2023/03/21 09:08:11;;;;;;;;;;;16.10;84.20;;;;;;5069738;28;19916;-89
2023/03/21 09:10:37;;;;;;;;;;;16.10;84.20;;;;;;5070701;28;19916;-89
2023/03/21 09:13:03;;;;;;;;;;;16.10;84.30;;;;;;5076774;28;19927;-89
2023/03/21 09:15:29;;;;;;;;;;;16.10;84.30;;;;;;5070594;28;19908;-89
2023/03/21 09:17:57;;;;;;;;;;;16.10;84.30;;;;;;5070463;28;19912;-89
2023/03/21 09:20:29;;;;;;;;;;;16.10;84.30;;;;;;5091814;28;19919;-89
2023/03/21 09:22:55;;;;;;;;;;;16.10;84.20;;;;;;5074558;28;19912;-89
2023/03/21 09:25:22;;;;;;;;;;;16.20;84.20;;;;;;5073470;28;20072;-89
2023/03/21 09:27:48;;;;;;;;;;;16.20;84.10;;;;;;5074696;28;19908;-89
2023/03/21 09:30:18;;;;;;;;;;;16.20;84.00;;;;;;5072978;28;19919;-89
2023/03/21 09:32:52;;;;;;;;;;;16.20;84.00;;;;;;5074244;28;20119;-89
2023/03/21 09:35:18;;;;;;;;;;;16.20;83.90;;;;;;5072911;28;19908;-89
2023/03/21 09:37:47;;;;;;;;;;;16.20;83.80;;;;;;5090742;28;19912;-89
2023/03/21 09:40:30;;;;;;;;;;;16.20;83.80;;;;;;5072367;28;19908;-89
2023/03/21 09:42:59;;;;;;;;;;;16.20;83.80;;;;;;5074876;28;20150;-89
2023/03/21 09:45:52;;;;;;;;;;;16.20;83.80;;;;;;5075550;28;19919;-89
2023/03/21 09:48:29;;;;;;;;;;;16.20;83.80;;;;;;5050765;28;20102;-89
2023/03/21 09:50:54;;;;;;;;;;;16.20;83.70;;;;;;5073890;28;19960;-89
2023/03/21 09:53:40;;;;;;;;;;;16.20;83.70;;;;;;5072751;28;19970;-89
2023/03/21 09:56:11;;;;;;;;;;;16.20;83.60;;;;;;5070188;28;19912;-89
2023/03/21 09:58:51;;;;;;;;;;;16.20;83.60;;;;;;5071782;28;20055;-89
2023/03/21 10:01:40;;;;;;;;;;;16.20;83.60;;;;;;5089147;28;19920;-89
2023/03/21 10:04:07;;;;;;;;;;;16.20;83.80;;;;;;5087934;28;19919;-89
2023/03/21 10:06:39;;;;;;;;;;;16.20;84.00;;;;;;5071026;28;19912;-89
2023/03/21 10:09:12;;;;;;;;;;;16.20;84.20;;;;;;5090141;28;19970;-89
2023/03/21 10:11:43;;;;;;;;;;;16.20;84.30;;;;;;5073062;28;20084;-89
2023/03/21 10:14:22;;;;;;;;;;;16.20;84.50;;;;;;5071080;28;19908;-89
2023/03/21 10:17:02;;;;;;;;;;;16.20;84.50;;;;;;5070031;28;19916;-89
2023/03/21 10:19:27;;;;;;;;;;;16.30;84.70;;;;;;5071287;28;19934;-89
2023/03/21 10:21:53;;;;;;;;;;;16.30;84.90;;;;;;5069673;28;19908;-89
2023/03/21 10:24:22;;;;;;;;;;;16.30;85.10;;;;;;5069544;28;19908;-89
2023/03/21 10:26:49;;;;;;;;;;;16.30;85.10;;;;;;5071062;28;19957;-89
2023/03/21 10:29:16;;;;;;;;;;;16.30;85.30;;;;;;5070236;28;19977;-89
2023/03/21 10:31:42;;;;;;;;;;;16.30;85.30;;;;;;5087919;28;19908;-88
2023/03/21 10:34:26;;;;;;;;;;;16.30;85.60;;;;;;5070643;28;19949;-89
2023/03/21 10:36:55;;;;;;;;;;;16.30;85.60;;;;;;5070243;28;19919;-89
2023/03/21 10:39:26;;;;;;;;;;;16.30;85.80;;;;;;5070542;28;19996;-89
2023/03/21 10:41:54;;;;;;;;;;;16.30;86.00;;;;;;5071195;28;20006;-89
2023/03/21 10:44:20;;;;;;;;;;;16.30;85.90;;;;;;5072535;28;19920;-89
2023/03/21 10:46:52;;;;;;;;;;;16.30;85.80;;;;;;5077626;28;19912;-89
2023/03/21 10:49:20;;;;;;;;;;;16.30;85.60;;;;;;5077571;28;19908;-89
2023/03/21 10:51:46;;;;;;;;;;;16.40;85.50;;;;;;5078061;28;20009;-89
2023/03/21 10:54:14;;;;;;;;;;;16.40;85.40;;;;;;5078032;28;19908;-89
2023/03/21 10:56:47;;;;;;;;;;;16.40;85.30;;;;;;5071921;28;19908;-89
2023/03/21 10:59:20;;;;;;;;;;;16.40;85.10;;;;;;5070314;28;19920;-88
2023/03/21 11:01:50;;;;;;;;;;;16.40;84.80;;;;;;5068474;28;20301;-89
2023/03/21 11:04:21;;;;;;;;;;;16.50;84.60;;;;;;5070294;28;19919;-90
2023/03/21 11:07:06;;;;;;;;;;;16.50;84.50;;;;;;5071432;28;19954;-89
2023/03/21 11:09:49;;;;;;;;;;;16.50;84.50;;;;;;5070514;28;19919;-89
2023/03/21 11:12:15;;;;;;;;;;;16.50;84.40;;;;;;5069149;28;20166;-89
2023/03/21 11:14:43;;;;;;;;;;;16.50;84.40;;;;;;5070275;28;19916;-89
2023/03/21 11:17:17;;;;;;;;;;;16.50;84.20;;;;;;5070895;28;19908;-89
2023/03/21 11:19:48;;;;;;;;;;;16.50;84.20;;;;;;5070883;28;19908;-89
2023/03/21 11:22:16;;;;;;;;;;;16.60;84.30;;;;;;5071858;28;19999;-90
2023/03/21 11:24:45;;;;;;;;;;;16.60;84.10;;;;;;5089574;28;20337;-89
2023/03/21 11:27:14;;;;;;;;;;;16.60;83.90;;;;;;5089428;28;20381;-89
2023/03/21 11:29:45;;;;;;;;;;;16.70;83.70;;;;;;5088658;28;20378;-89
2023/03/21 11:32:10;;;;;;;;;;;16.70;83.70;;;;;;5087166;28;20236;-90
2023/03/21 11:34:42;;;;;;;;;;;16.70;83.70;;;;;;5069058;28;20312;-89
2023/03/21 11:37:27;;;;;;;;;;;16.70;83.60;;;;;;5068987;28;19947;-89
2023/03/21 11:40:03;;;;;;;;;;;16.70;83.40;;;;;;5068051;28;20011;-89
2023/03/21 11:42:30;;;;;;;;;;;16.70;83.30;;;;;;5065817;28;19908;-89
2023/03/21 11:45:00;;;;;;;;;;;16.70;83.30;;;;;;5069248;28;19988;-90
2023/03/21 11:47:26;;;;;;;;;;;16.70;83.30;;;;;;5069371;28;19953;-90
2023/03/21 11:49:52;;;;;;;;;;;16.70;83.30;;;;;;5067346;28;20123;-89
2023/03/21 11:52:18;;;;;;;;;;;16.70;83.30;;;;;;5067136;28;19916;-89
2023/03/21 11:55:19;;;;;;;;;;;16.70;83.40;;;;;;5066130;28;20292;-90
2023/03/21 11:57:52;;;;;;;;;;;16.70;83.50;;;;;;5008336;28;19909;-90
2023/03/21 12:00:26;;;;;;;;;;;16.70;83.60;;;;;;5006706;28;20255;-89
2023/03/21 12:03:03;;;;;;;;;;;16.70;83.80;;;;;;5007046;28;19909;-90
2023/03/21 12:05:36;;;;;;;;;;;16.70;83.80;;;;;;5006475;28;19938;-89
2023/03/21 12:08:17;;;;;;;;;;;16.70;83.80;;;;;;5050697;28;20476;-89
2023/03/21 12:10:43;;;;;;;;;;;16.70;83.70;;;;;;5064727;28;20497;-89
2023/03/21 12:13:27;;;;;;;;;;;16.70;83.50;;;;;;5065808;28;20228;-89
2023/03/21 12:15:52;;;;;;;;;;;16.80;83.30;;;;;;5067841;28;20194;-90
2023/03/21 12:18:24;;;;;;;;;;;16.80;83.20;;;;;;5066655;28;20436;-90
2023/03/21 12:20:50;;;;;;;;;;;16.80;83.10;;;;;;5067879;28;20335;-90
2023/03/21 12:23:27;;;;;;;;;;;16.80;83.20;;;;;;5070487;28;19923;-90
2023/03/21 12:25:56;;;;;;;;;;;16.80;83.70;;;;;;5071031;28;19923;-89
2023/03/21 12:28:28;;;;;;;;;;;16.80;83.90;;;;;;5069209;28;19997;-89
2023/03/21 12:31:03;;;;;;;;;;;16.80;83.80;;;;;;5069883;28;20069;-89
2023/03/21 12:33:40;;;;;;;;;;;16.80;84.00;;;;;;5086335;28;19920;-89
2023/03/21 12:36:13;;;;;;;;;;;16.80;84.20;;;;;;5085966;28;20277;-90
2023/03/21 12:38:57;;;;;;;;;;;16.80;84.60;;;;;;5072571;28;19912;-90
2023/03/21 12:41:26;;;;;;;;;;;16.80;84.80;;;;;;5066952;28;20038;-89
2023/03/21 12:44:10;;;;;;;;;;;16.80;84.80;;;;;;5068862;28;20182;-89
2023/03/21 12:46:45;;;;;;;;;;;16.80;85.10;;;;;;5066118;28;19963;-90
2023/03/21 12:49:31;;;;;;;;;;;16.80;84.90;;;;;;5068105;28;20246;-89
2023/03/21 12:52:07;;;;;;;;;;;16.80;84.80;;;;;;5065325;28;19916;-89
2023/03/21 12:54:32;;;;;;;;;;;16.80;84.80;;;;;;5068069;28;20011;-89
2023/03/21 12:57:04;;;;;;;;;;;16.80;84.70;;;;;;5070486;28;20319;-90
2023/03/21 12:59:45;;;;;;;;;;;16.80;84.80;;;;;;5071034;28;19915;-90
2023/03/21 13:02:26;;;;;;;;;;;16.80;84.80;;;;;;5068411;28;19957;-90
2023/03/21 13:05:05;;;;;;;;;;;16.80;84.80;;;;;;5069809;28;20291;-90
2023/03/21 13:07:41;;;;;;;;;;;16.80;84.80;;;;;;5069845;28;19912;-90
2023/03/21 13:10:19;;;;;;;;;;;16.80;84.90;;;;;;5070345;28;19996;-90
2023/03/21 13:13:00;;;;;;;;;;;16.80;84.90;;;;;;5070382;28;19908;-90
2023/03/21 13:15:26;;;;;;;;;;;16.80;84.80;;;;;;5070522;28;20211;-89
2023/03/21 13:17:58;;;;;;;;;;;16.80;84.70;;;;;;5072201;28;19969;-89
2023/03/21 13:20:47;;;;;;;;;;;16.80;84.70;;;;;;5071263;28;19908;-89
2023/03/21 13:23:17;;;;;;;;;;;16.80;84.70;;;;;;5070631;28;20262;-90
2023/03/21 13:25:50;;;;;;;;;;;16.80;84.60;;;;;;5070002;28;20339;-89
2023/03/21 13:28:20;;;;;;;;;;;16.80;84.60;;;;;;5069823;28;19935;-90
2023/03/21 13:30:47;;;;;;;;;;;16.80;84.60;;;;;;5071950;28;20267;-89
2023/03/21 13:33:28;;;;;;;;;;;16.80;84.60;;;;;;5071767;28;19912;-90
2023/03/21 13:36:05;;;;;;;;;;;16.80;84.50;;;;;;5069129;28;19977;-88
2023/03/21 13:38:33;;;;;;;;;;;16.80;84.50;;;;;;5067942;28;19919;-89
2023/03/21 13:41:00;;;;;;;;;;;16.80;84.40;;;;;;5083573;28;19908;-89
2023/03/21 13:43:45;;;;;;;;;;;16.90;84.50;;;;;;5067941;28;20286;-90
2023/03/21 13:46:33;;;;;;;;;;;16.80;84.40;;;;;;5065897;28;20190;-90
2023/03/21 13:49:01;;;;;;;;;;;16.80;84.50;;;;;;5075226;28;19916;-90
2023/03/21 13:51:35;;;;;;;;;;;16.80;84.50;;;;;;5067054;28;19908;-89
2023/03/21 13:54:01;;;;;;;;;;;16.80;84.60;;;;;;5067007;28;19908;-89
2023/03/21 13:56:30;;;;;;;;;;;16.80;84.60;;;;;;5069223;28;19922;-90
2023/03/21 13:59:04;;;;;;;;;;;16.80;84.60;;;;;;5068110;28;19922;-89
2023/03/21 14:01:29;;;;;;;;;;;16.80;84.60;;;;;;5070050;28;19908;-90
2023/03/21 14:04:01;;;;;;;;;;;16.80;84.70;;;;;;5070874;28;19919;-89
2023/03/21 14:06:36;;;;;;;;;;;16.80;84.70;;;;;;5069334;28;19912;-89
2023/03/21 14:09:05;;;;;;;;;;;16.80;84.70;;;;;;5071016;28;19908;-90
2023/03/21 14:11:32;;;;;;;;;;;16.80;84.70;;;;;;5068419;28;20079;-89
2023/03/21 14:13:59;;;;;;;;;;;16.80;84.70;;;;;;5068236;28;20007;-90
2023/03/21 14:16:27;;;;;;;;;;;16.80;84.70;;;;;;5069541;28;20308;-89
2023/03/21 14:18:59;;;;;;;;;;;16.80;84.80;;;;;;5070563;28;19943;-90
2023/03/21 14:21:30;;;;;;;;;;;16.80;84.80;;;;;;5088150;28;19957;-89
2023/03/21 14:24:06;;;;;;;;;;;16.80;84.80;;;;;;5070486;28;19999;-89
2023/03/21 14:26:52;;;;;;;;;;;16.90;85.10;;;;;;5069562;28;20015;-89
2023/03/21 14:29:26;;;;;;;;;;;16.90;85.30;;;;;;5038839;28;19989;-90
2023/03/21 14:31:56;;;;;;;;;;;16.90;85.70;;;;;;5067779;28;19947;-89
2023/03/21 14:34:22;;;;;;;;;;;16.90;86.20;;;;;;5069021;28;19916;-90
2023/03/21 14:36:48;;;;;;;;;;;16.90;86.20;;;;;;5069744;28;20132;-89